createdAt,value
2023-02-27T00:00:55.346Z,47.35
2023-02-27T00:01:56.836Z,47.74
2023-02-27T00:02:58.714Z,47.89
2023-02-27T00:04:01.086Z,48.09
2023-02-27T00:05:02.663Z,48.10
2023-02-27T00:06:04.656Z,48.18
2023-02-27T00:07:07.214Z,47.81
2023-02-27T00:08:08.739Z,47.97
2023-02-27T00:09:10.630Z,47.81
2023-02-27T00:10:12.649Z,47.77
2023-02-27T00:11:14.315Z,47.63
2023-02-27T00:12:15.843Z,47.19
2023-02-27T00:13:17.485Z,47.44
2023-02-27T00:14:19.091Z,47.22
2023-02-27T00:15:20.734Z,47.43
2023-02-27T00:16:22.315Z,47.37
2023-02-27T00:17:27.977Z,47.82
2023-02-27T00:18:29.478Z,47.47
2023-02-27T00:19:31.207Z,47.82
2023-02-27T00:20:37.801Z,47.93
2023-02-27T00:21:39.845Z,47.61
2023-02-27T00:22:41.595Z,47.65
2023-02-27T00:23:43.420Z,47.44
2023-02-27T00:24:44.927Z,47.13
2023-02-27T00:25:46.497Z,47.48
2023-02-27T00:26:47.961Z,47.24
2023-02-27T00:27:49.464Z,47.33
2023-02-27T00:28:50.992Z,47.33
2023-02-27T00:29:52.480Z,47.77
2023-02-27T00:30:54.200Z,47.94
2023-02-27T00:31:55.899Z,47.52
2023-02-27T00:32:57.785Z,47.09
2023-02-27T00:33:59.285Z,46.83
2023-02-27T00:35:00.757Z,47.17
2023-02-27T00:36:02.502Z,47.55
2023-02-27T00:37:04.026Z,47.23
2023-02-27T00:38:05.959Z,47.20
2023-02-27T00:39:07.539Z,47.72
2023-02-27T00:40:09.773Z,47.64
2023-02-27T00:41:11.286Z,47.59
2023-02-27T00:42:12.842Z,47.29
2023-02-27T00:43:14.631Z,47.79
2023-02-27T00:44:16.333Z,47.32
2023-02-27T00:45:18.545Z,46.84
2023-02-27T00:46:20.164Z,47.34
2023-02-27T00:47:21.742Z,47.26
2023-02-27T00:48:23.427Z,46.94
2023-02-27T00:49:25.555Z,47.62
2023-02-27T00:50:27.082Z,47.45
2023-02-27T00:51:28.742Z,47.31
2023-02-27T00:52:30.360Z,47.14
2023-02-27T00:53:31.851Z,46.97
2023-02-27T00:54:33.349Z,47.33
2023-02-27T00:55:34.958Z,47.33
2023-02-27T00:56:36.858Z,47.46
2023-02-27T00:57:39.248Z,47.56
2023-02-27T00:58:41.127Z,47.32
2023-02-27T00:59:42.710Z,47.62
2023-02-27T01:00:44.322Z,47.38
2023-02-27T01:01:45.869Z,47.63
2023-02-27T01:02:47.411Z,48.19
2023-02-27T01:03:48.982Z,48.10
2023-02-27T01:04:50.478Z,47.66
2023-02-27T01:05:52.072Z,48.27
2023-02-27T01:06:53.579Z,48.25
2023-02-27T01:07:55.607Z,47.67
2023-02-27T01:08:57.102Z,47.55
2023-02-27T01:09:59.025Z,47.63
2023-02-27T01:11:00.660Z,47.07
2023-02-27T01:12:02.185Z,47.08
2023-02-27T01:13:03.951Z,47.73
2023-02-27T01:14:05.527Z,47.96
2023-02-27T01:15:07.847Z,47.20
2023-02-27T01:16:10.514Z,47.69
2023-02-27T01:17:12.090Z,47.67
2023-02-27T01:18:13.893Z,47.52
2023-02-27T01:19:15.662Z,47.17
2023-02-27T01:20:17.248Z,47.33
2023-02-27T01:21:18.791Z,47.80
2023-02-27T01:22:20.303Z,47.57
2023-02-27T01:23:22.495Z,47.44
2023-02-27T01:24:24.037Z,47.04
2023-02-27T01:25:25.529Z,47.19
2023-02-27T01:26:27.042Z,47.57
2023-02-27T01:27:28.537Z,47.48
2023-02-27T01:28:30.432Z,47.33
2023-02-27T01:29:31.932Z,47.53
2023-02-27T01:30:33.436Z,47.96
2023-02-27T01:31:34.985Z,47.85
2023-02-27T01:32:36.899Z,47.96
2023-02-27T01:33:38.414Z,47.89
2023-02-27T01:34:39.937Z,47.91
2023-02-27T01:35:41.437Z,47.55
2023-02-27T01:36:42.958Z,47.64
2023-02-27T01:37:44.988Z,47.57
2023-02-27T01:38:46.785Z,47.18
2023-02-27T01:39:48.316Z,46.98
2023-02-27T01:40:49.785Z,47.60
2023-02-27T01:41:51.286Z,47.65
2023-02-27T01:42:53.133Z,47.32
2023-02-27T01:43:55.573Z,47.47
2023-02-27T01:45:12.700Z,47.06
2023-02-27T01:46:14.264Z,46.89
2023-02-27T01:47:15.791Z,46.94
2023-02-27T01:48:27.510Z,47.55
2023-02-27T01:49:31.869Z,47.67
2023-02-27T01:50:34.066Z,47.18
2023-02-27T01:51:45.148Z,47.85
2023-02-27T01:52:59.411Z,47.32
2023-02-27T01:54:00.997Z,47.34
2023-02-27T01:55:03.230Z,47.95
2023-02-27T01:56:25.750Z,48.03
2023-02-27T01:57:27.263Z,47.22
2023-02-27T01:58:28.751Z,47.68
2023-02-27T01:59:30.279Z,47.67
2023-02-27T02:00:32.032Z,48.23
2023-02-27T02:01:34.400Z,48.56
2023-02-27T02:02:40.651Z,48.13
2023-02-27T02:03:56.494Z,48.52
2023-02-27T02:04:58.079Z,47.85
2023-02-27T02:06:00.534Z,48.29
2023-02-27T02:07:10.115Z,48.75
2023-02-27T02:08:12.078Z,47.80
2023-02-27T02:09:14.297Z,48.52
2023-02-27T02:10:16.417Z,48.23
2023-02-27T02:11:18.497Z,47.94
2023-02-27T02:12:22.851Z,47.84
2023-02-27T02:13:24.384Z,48.86
2023-02-27T02:14:25.877Z,48.77
2023-02-27T02:15:33.427Z,48.29
2023-02-27T02:16:44.663Z,48.98
2023-02-27T02:18:04.150Z,48.83
2023-02-27T02:19:21.211Z,49.05
2023-02-27T02:21:06.737Z,48.70
2023-02-27T02:22:14.100Z,48.29
2023-02-27T02:23:36.889Z,47.99
2023-02-27T02:25:17.816Z,48.38
2023-02-27T02:26:45.161Z,47.88
2023-02-27T02:27:52.820Z,47.84
2023-02-27T02:29:13.180Z,47.91
2023-02-27T02:30:36.562Z,47.89
2023-02-27T02:32:03.013Z,47.50
2023-02-27T02:33:04.555Z,47.40
2023-02-27T02:34:23.389Z,47.76
2023-02-27T02:35:36.828Z,47.66
2023-02-27T02:37:17.314Z,48.02
2023-02-27T02:38:24.585Z,47.39
2023-02-27T02:39:55.511Z,48.01
2023-02-27T02:41:16.914Z,47.95
2023-02-27T02:42:59.289Z,48.14
2023-02-27T02:44:14.753Z,47.12
2023-02-27T02:45:32.600Z,48.06
2023-02-27T02:46:47.960Z,47.98
2023-02-27T02:48:01.215Z,47.51
2023-02-27T02:49:48.235Z,47.15
2023-02-27T02:51:15.569Z,47.21
2023-02-27T02:52:22.899Z,47.04
2023-02-27T02:53:42.955Z,47.69
2023-02-27T02:55:03.180Z,47.42
2023-02-27T02:56:25.238Z,48.06
2023-02-27T02:57:30.389Z,48.30
2023-02-27T02:59:05.115Z,48.95
2023-02-27T03:00:33.764Z,48.73
2023-02-27T03:01:37.981Z,48.01
2023-02-27T03:02:45.074Z,48.32
2023-02-27T03:03:57.457Z,48.15
2023-02-27T03:05:23.710Z,47.87
2023-02-27T03:06:33.595Z,48.62
2023-02-27T03:07:39.232Z,47.42
2023-02-27T03:08:43.875Z,48.41
2023-02-27T03:10:08.743Z,48.05
2023-02-27T03:11:10.638Z,47.86
2023-02-27T03:12:14.252Z,48.52
2023-02-27T03:13:20.930Z,49.25
2023-02-27T03:14:42.007Z,49.75
2023-02-27T03:15:46.513Z,50.02
2023-02-27T03:16:50.269Z,49.74
2023-02-27T03:17:55.782Z,49.95
2023-02-27T03:19:11.525Z,49.50
2023-02-27T03:20:16.545Z,49.27
2023-02-27T03:21:43.133Z,49.38
2023-02-27T03:22:46.397Z,48.89
2023-02-27T03:23:48.454Z,49.01
2023-02-27T03:24:54.102Z,49.38
2023-02-27T03:25:58.064Z,49.59
2023-02-27T03:27:02.928Z,49.09
2023-02-27T03:28:09.934Z,48.44
2023-02-27T03:29:14.526Z,49.54
2023-02-27T03:30:41.546Z,49.53
2023-02-27T03:32:18.466Z,49.77
2023-02-27T03:33:31.751Z,48.72
2023-02-27T03:34:34.445Z,49.60
2023-02-27T03:35:59.024Z,49.30
2023-02-27T03:37:03.766Z,48.60
2023-02-27T03:38:25.213Z,48.89
2023-02-27T03:39:48.894Z,48.39
2023-02-27T03:41:08.319Z,48.33
2023-02-27T03:42:31.023Z,48.72
2023-02-27T03:44:08.955Z,48.22
2023-02-27T03:45:50.665Z,47.84
2023-02-27T03:46:52.196Z,47.91
2023-02-27T03:47:54.042Z,48.42
2023-02-27T03:48:55.613Z,47.49
2023-02-27T03:49:57.170Z,48.36
2023-02-27T03:50:58.706Z,47.98
2023-02-27T03:52:00.212Z,48.18
2023-02-27T03:53:01.869Z,47.80
2023-02-27T03:54:10.603Z,47.77
2023-02-27T03:55:14.890Z,47.45
2023-02-27T03:56:16.930Z,47.90
2023-02-27T03:57:18.506Z,47.75
2023-02-27T03:58:19.990Z,48.74
2023-02-27T03:59:22.394Z,48.20
2023-02-27T04:00:24.969Z,49.00
2023-02-27T04:01:26.933Z,48.37
2023-02-27T04:02:28.666Z,48.86
2023-02-27T04:03:30.880Z,48.54
2023-02-27T04:04:32.781Z,48.87
2023-02-27T04:05:34.320Z,48.32
2023-02-27T04:07:12.197Z,48.41
2023-02-27T04:08:27.777Z,48.36
2023-02-27T04:09:50.682Z,48.48
2023-02-27T04:11:27.819Z,47.62
2023-02-27T04:12:56.075Z,47.73
2023-02-27T04:14:26.913Z,48.33
2023-02-27T04:15:47.037Z,48.60
2023-02-27T04:17:03.537Z,48.71
2023-02-27T04:18:29.757Z,48.50
2023-02-27T04:19:39.930Z,48.39
2023-02-27T04:20:46.199Z,48.48
2023-02-27T04:22:28.999Z,48.29
2023-02-27T04:23:37.710Z,48.64
2023-02-27T04:24:46.305Z,49.15
2023-02-27T04:26:12.052Z,48.38
2023-02-27T04:27:23.188Z,49.39
2023-02-27T04:28:28.013Z,49.14
2023-02-27T04:29:48.243Z,48.91
2023-02-27T04:31:01.065Z,49.13
2023-02-27T04:32:06.566Z,48.85
2023-02-27T04:33:10.743Z,48.24
2023-02-27T04:34:23.837Z,49.30
2023-02-27T04:35:37.378Z,49.48
2023-02-27T04:36:49.690Z,49.13
2023-02-27T04:37:55.204Z,49.19
2023-02-27T04:39:09.742Z,48.34
2023-02-27T04:40:12.861Z,48.78
2023-02-27T04:41:19.470Z,48.10
2023-02-27T04:42:24.168Z,48.17
2023-02-27T04:43:26.261Z,47.77
2023-02-27T04:44:28.296Z,48.34
2023-02-27T04:45:29.900Z,47.87
2023-02-27T04:46:31.422Z,47.91
2023-02-27T04:47:36.900Z,47.62
2023-02-27T04:48:57.144Z,47.80
2023-02-27T04:50:01.773Z,48.52
2023-02-27T04:51:11.449Z,48.00
2023-02-27T04:52:18.865Z,48.27
2023-02-27T04:53:23.782Z,47.43
2023-02-27T04:54:30.245Z,47.89
2023-02-27T04:55:36.338Z,47.52
2023-02-27T04:56:44.628Z,47.88
2023-02-27T04:57:49.811Z,48.38
2023-02-27T04:58:54.025Z,48.59
2023-02-27T04:59:56.042Z,47.80
2023-02-27T05:01:03.810Z,48.25
2023-02-27T05:02:18.546Z,48.46
2023-02-27T05:03:24.501Z,48.48
2023-02-27T05:04:27.269Z,48.62
2023-02-27T05:05:30.553Z,49.25
2023-02-27T05:06:33.800Z,48.98
2023-02-27T05:08:04.322Z,49.79
2023-02-27T05:09:19.293Z,49.53
2023-02-27T05:10:35.888Z,49.81
2023-02-27T05:11:46.146Z,49.31
2023-02-27T05:12:53.060Z,49.12
2023-02-27T05:14:01.192Z,49.52
2023-02-27T05:15:16.196Z,50.38
2023-02-27T05:16:33.229Z,50.02
2023-02-27T05:17:37.458Z,50.20
2023-02-27T05:18:39.063Z,50.59
2023-02-27T05:19:41.742Z,50.17
2023-02-27T05:21:26.576Z,50.01
2023-02-27T05:22:47.476Z,49.53
2023-02-27T05:24:03.859Z,48.96
2023-02-27T05:25:29.280Z,48.76
2023-02-27T05:26:55.242Z,48.71
2023-02-27T05:28:01.942Z,48.62
2023-02-27T05:29:09.581Z,49.08
2023-02-27T05:30:32.274Z,48.46
2023-02-27T05:31:49.686Z,49.41
2023-02-27T05:32:54.821Z,49.30
2023-02-27T05:34:04.318Z,49.18
2023-02-27T05:35:26.282Z,48.91
2023-02-27T05:36:40.576Z,48.44
2023-02-27T05:37:56.805Z,48.85
2023-02-27T05:39:08.908Z,48.00
2023-02-27T05:40:12.938Z,48.66
2023-02-27T05:41:19.356Z,48.28
2023-02-27T05:42:28.703Z,48.09
2023-02-27T05:43:35.686Z,48.52
2023-02-27T05:44:42.788Z,48.30
2023-02-27T05:45:45.823Z,47.96
2023-02-27T05:46:52.333Z,47.27
2023-02-27T05:47:57.618Z,47.44
2023-02-27T05:49:05.027Z,48.23
2023-02-27T05:50:10.229Z,47.33
2023-02-27T05:51:12.104Z,48.09
2023-02-27T05:52:16.144Z,48.06
2023-02-27T05:53:18.954Z,48.49
2023-02-27T05:54:24.752Z,47.86
2023-02-27T05:55:38.428Z,48.24
2023-02-27T05:56:40.093Z,47.71
2023-02-27T05:58:09.014Z,48.79
2023-02-27T05:59:14.668Z,48.64
2023-02-27T06:00:20.457Z,48.35
2023-02-27T06:01:24.922Z,49.26
2023-02-27T06:02:26.551Z,48.69
2023-02-27T06:03:28.664Z,48.41
2023-02-27T06:04:30.242Z,48.87
2023-02-27T06:05:31.989Z,49.05
2023-02-27T06:06:33.519Z,49.45
2023-02-27T06:07:35.139Z,49.54
2023-02-27T06:08:36.706Z,49.97
2023-02-27T06:09:38.367Z,49.57
2023-02-27T06:10:39.927Z,49.22
2023-02-27T06:11:44.143Z,49.24
2023-02-27T06:12:45.785Z,49.64
2023-02-27T06:13:47.315Z,49.71
2023-02-27T06:14:48.853Z,49.44
2023-02-27T06:15:50.371Z,49.45
2023-02-27T06:16:52.048Z,49.55
2023-02-27T06:17:53.625Z,49.69
2023-02-27T06:18:55.569Z,49.53
2023-02-27T06:19:57.334Z,49.96
2023-02-27T06:20:58.901Z,49.75
2023-02-27T06:22:00.566Z,49.94
2023-02-27T06:23:02.195Z,49.63
2023-02-27T06:24:03.919Z,49.38
2023-02-27T06:25:05.965Z,49.50
2023-02-27T06:26:07.509Z,49.58
2023-02-27T06:27:09.371Z,49.70
2023-02-27T06:28:11.369Z,50.31
2023-02-27T06:29:13.704Z,49.93
2023-02-27T06:30:15.397Z,49.98
2023-02-27T06:31:17.039Z,50.27
2023-02-27T06:32:18.729Z,49.96
2023-02-27T06:33:20.290Z,49.70
2023-02-27T06:34:21.911Z,49.88
2023-02-27T06:35:23.498Z,49.71
2023-02-27T06:36:25.326Z,50.05
2023-02-27T06:37:27.250Z,49.71
2023-02-27T06:38:28.824Z,49.65
2023-02-27T06:39:30.326Z,49.79
2023-02-27T06:40:32.004Z,48.87
2023-02-27T06:41:33.999Z,49.08
2023-02-27T06:42:35.579Z,49.32
2023-02-27T06:43:37.272Z,49.38
2023-02-27T06:44:38.826Z,48.78
2023-02-27T06:45:40.329Z,48.78
2023-02-27T06:46:42.044Z,49.70
2023-02-27T06:47:43.606Z,48.65
2023-02-27T06:48:45.618Z,49.48
2023-02-27T06:49:47.139Z,49.81
2023-02-27T06:50:56.216Z,49.50
2023-02-27T06:51:57.765Z,48.40
2023-02-27T06:52:59.291Z,48.91
2023-02-27T06:54:00.848Z,48.08
2023-02-27T06:55:02.411Z,48.22
2023-02-27T06:56:04.149Z,48.56
2023-02-27T06:57:05.673Z,48.47
2023-02-27T06:58:07.211Z,48.79
2023-02-27T06:59:08.745Z,48.54
2023-02-27T07:00:12.570Z,48.91
2023-02-27T07:01:14.591Z,48.70
2023-02-27T07:02:16.346Z,49.19
2023-02-27T07:03:17.901Z,48.90
2023-02-27T07:04:19.480Z,49.31
2023-02-27T07:05:21.046Z,48.79
2023-02-27T07:07:32.240Z,49.38
2023-02-27T07:07:44.027Z,48.99
2023-02-27T07:09:01.165Z,50.10
2023-02-27T07:10:11.181Z,49.45
2023-02-27T07:11:12.759Z,49.86
2023-02-27T07:12:14.342Z,49.57
2023-02-27T07:13:19.376Z,49.47
2023-02-27T07:14:21.239Z,49.13
2023-02-27T07:15:22.862Z,49.01
2023-02-27T07:16:24.424Z,49.30
2023-02-27T07:17:26.021Z,49.16
2023-02-27T07:18:27.671Z,48.98
2023-02-27T07:19:29.305Z,49.30
2023-02-27T07:20:30.915Z,49.22
2023-02-27T07:21:32.415Z,49.31
2023-02-27T07:22:34.190Z,49.59
2023-02-27T07:23:35.950Z,49.77
2023-02-27T07:24:37.504Z,50.05
2023-02-27T07:25:39.007Z,49.45
2023-02-27T07:26:40.521Z,48.96
2023-02-27T07:27:44.414Z,48.99
2023-02-27T07:28:45.931Z,49.00
2023-02-27T07:29:47.494Z,48.74
2023-02-27T07:30:49.104Z,48.46
2023-02-27T07:31:50.702Z,48.59
2023-02-27T07:32:52.404Z,48.56
2023-02-27T07:33:53.885Z,48.49
2023-02-27T07:34:55.391Z,48.46
2023-02-27T07:35:57.055Z,48.34
2023-02-27T07:36:58.689Z,47.57
2023-02-27T07:38:03.951Z,48.67
2023-02-27T07:39:05.895Z,48.70
2023-02-27T07:40:07.746Z,48.70
2023-02-27T07:41:15.883Z,48.42
2023-02-27T07:42:22.853Z,48.52
2023-02-27T07:43:24.553Z,50.27
2023-02-27T07:44:26.088Z,50.93
2023-02-27T07:45:27.645Z,49.31
2023-02-27T07:46:29.517Z,49.66
2023-02-27T07:47:31.696Z,49.40
2023-02-27T07:48:33.348Z,48.86
2023-02-27T07:49:34.922Z,48.27
2023-02-27T07:50:36.753Z,47.82
2023-02-27T07:51:38.267Z,47.98
2023-02-27T07:52:43.145Z,48.71
2023-02-27T07:53:44.731Z,47.68
2023-02-27T07:54:46.210Z,47.78
2023-02-27T07:55:47.800Z,47.94
2023-02-27T07:56:49.506Z,46.92
2023-02-27T07:57:51.048Z,47.61
2023-02-27T07:58:52.585Z,47.74
2023-02-27T07:59:54.092Z,47.03
2023-02-27T08:00:55.603Z,46.78
2023-02-27T08:01:57.101Z,46.20
2023-02-27T08:02:58.702Z,46.61
2023-02-27T08:04:00.214Z,46.83
2023-02-27T08:05:01.712Z,47.16
2023-02-27T08:06:03.314Z,46.47
2023-02-27T08:07:05.191Z,46.69
2023-02-27T08:08:07.021Z,46.84
2023-02-27T08:09:08.676Z,46.57
2023-02-27T08:10:10.920Z,45.34
2023-02-27T08:11:12.421Z,44.61
2023-02-27T08:12:13.905Z,41.92
2023-02-27T08:13:17.895Z,38.36
2023-02-27T08:14:22.122Z,35.20
2023-02-27T08:15:24.632Z,32.71
2023-02-27T08:16:26.746Z,31.11
2023-02-27T08:17:28.531Z,29.36
2023-02-27T08:18:30.251Z,28.50
2023-02-27T08:19:31.813Z,27.19
2023-02-27T08:20:33.329Z,28.30
2023-02-27T08:21:34.966Z,28.39
2023-02-27T08:22:36.526Z,29.27
2023-02-27T08:23:38.047Z,30.83
2023-02-27T08:24:40.582Z,31.29
2023-02-27T08:25:42.104Z,31.60
2023-02-27T08:26:43.643Z,32.77
2023-02-27T08:27:45.196Z,34.21
2023-02-27T08:28:46.842Z,34.82
2023-02-27T08:29:51.090Z,35.83
2023-02-27T08:30:52.784Z,36.23
2023-02-27T08:31:54.360Z,37.19
2023-02-27T08:32:56.076Z,37.06
2023-02-27T08:34:04.422Z,36.77
2023-02-27T08:35:10.634Z,36.59
2023-02-27T08:36:12.226Z,36.08
2023-02-27T08:37:13.765Z,36.33
2023-02-27T08:38:15.675Z,35.47
2023-02-27T08:39:18.033Z,34.88
2023-02-27T08:40:22.462Z,34.60
2023-02-27T08:41:24.057Z,34.22
2023-02-27T08:42:26.919Z,34.20
2023-02-27T08:43:28.885Z,34.32
2023-02-27T08:44:30.453Z,35.14
2023-02-27T08:45:32.092Z,35.80
2023-02-27T08:46:36.101Z,35.83
2023-02-27T08:47:37.715Z,35.92
2023-02-27T08:48:39.739Z,36.54
2023-02-27T08:49:41.306Z,36.97
2023-02-27T08:50:42.967Z,37.57
2023-02-27T08:51:44.498Z,37.35
2023-02-27T08:52:46.041Z,37.33
2023-02-27T08:53:47.915Z,37.85
2023-02-27T08:54:49.466Z,38.49
2023-02-27T08:55:51.294Z,39.41
2023-02-27T08:56:52.841Z,39.43
2023-02-27T08:57:54.401Z,38.24
2023-02-27T08:58:56.317Z,38.55
2023-02-27T08:59:57.943Z,38.87
2023-02-27T09:00:59.556Z,39.08
2023-02-27T09:02:01.119Z,38.37
2023-02-27T09:03:02.788Z,38.31
2023-02-27T09:04:04.584Z,38.57
2023-02-27T09:05:06.336Z,38.81
2023-02-27T09:06:08.028Z,40.00
2023-02-27T09:07:09.550Z,39.88
2023-02-27T09:08:11.752Z,39.83
2023-02-27T09:09:13.298Z,39.69
2023-02-27T09:10:14.971Z,37.49
2023-02-27T09:11:17.197Z,35.93
2023-02-27T09:12:18.694Z,35.25
2023-02-27T09:13:21.998Z,35.63
2023-02-27T09:14:24.227Z,35.17
2023-02-27T09:15:25.883Z,34.24
2023-02-27T09:16:27.828Z,34.11
2023-02-27T09:17:29.536Z,33.47
2023-02-27T09:18:31.144Z,33.51
2023-02-27T09:19:32.782Z,33.01
2023-02-27T09:20:35.954Z,32.88
2023-02-27T09:21:37.587Z,33.07
2023-02-27T09:22:39.297Z,32.76
2023-02-27T09:23:41.224Z,33.48
2023-02-27T09:24:42.821Z,34.74
2023-02-27T09:25:44.815Z,34.77
2023-02-27T09:26:46.869Z,34.62
2023-02-27T09:27:48.504Z,37.16
2023-02-27T09:28:50.063Z,37.04
2023-02-27T09:29:55.604Z,36.47
2023-02-27T09:31:01.195Z,36.97
2023-02-27T09:32:02.851Z,36.55
2023-02-27T09:33:04.440Z,35.97
2023-02-27T09:34:06.011Z,36.20
2023-02-27T09:35:09.342Z,35.82
2023-02-27T09:36:10.918Z,35.82
2023-02-27T09:37:12.530Z,35.64
2023-02-27T09:38:14.034Z,35.64
2023-02-27T09:39:15.654Z,35.52
2023-02-27T09:40:25.475Z,35.77
2023-02-27T09:41:48.219Z,36.02
2023-02-27T09:42:49.788Z,35.86
2023-02-27T09:43:51.826Z,36.37
2023-02-27T09:44:57.914Z,35.73
2023-02-27T09:45:59.488Z,35.99
2023-02-27T09:47:01.187Z,36.10
2023-02-27T09:48:33.498Z,36.59
2023-02-27T09:49:41.686Z,36.92
2023-02-27T09:50:44.644Z,36.85
2023-02-27T09:51:46.181Z,36.58
2023-02-27T09:52:47.709Z,36.73
2023-02-27T09:53:51.627Z,37.19
2023-02-27T09:54:55.189Z,37.21
2023-02-27T09:56:00.815Z,38.15
2023-02-27T09:57:03.935Z,37.93
2023-02-27T09:58:23.192Z,37.53
2023-02-27T09:59:42.480Z,36.83
2023-02-27T10:01:02.519Z,37.29
2023-02-27T10:02:13.875Z,37.70
2023-02-27T10:03:37.058Z,37.72
2023-02-27T10:04:54.325Z,39.14
2023-02-27T10:05:59.238Z,39.98
2023-02-27T10:07:07.981Z,40.22
2023-02-27T10:08:09.428Z,39.88
2023-02-27T10:09:17.530Z,40.05
2023-02-27T10:10:21.776Z,39.59
2023-02-27T10:11:32.831Z,39.69
2023-02-27T10:12:45.117Z,41.54
2023-02-27T10:14:07.792Z,41.17
2023-02-27T10:15:27.519Z,40.42
2023-02-27T10:16:29.287Z,39.84
2023-02-27T10:17:35.217Z,39.70
2023-02-27T10:18:58.280Z,40.23
2023-02-27T10:20:01.106Z,39.90
2023-02-27T10:21:12.049Z,40.07
2023-02-27T10:22:14.953Z,39.59
2023-02-27T10:23:18.996Z,38.10
2023-02-27T10:24:29.482Z,37.33
2023-02-27T10:25:32.349Z,36.44
2023-02-27T10:26:36.411Z,35.94
2023-02-27T10:27:37.960Z,36.39
2023-02-27T10:28:39.802Z,36.30
2023-02-27T10:29:41.793Z,36.34
2023-02-27T10:30:54.792Z,37.08
2023-02-27T10:32:26.898Z,38.01
2023-02-27T10:33:37.546Z,38.46
2023-02-27T10:34:40.052Z,38.68
2023-02-27T10:35:44.027Z,38.95
2023-02-27T10:36:45.956Z,38.89
2023-02-27T10:37:53.085Z,38.80
2023-02-27T10:38:56.779Z,38.32
2023-02-27T10:40:00.535Z,38.62
2023-02-27T10:41:02.489Z,40.46
2023-02-27T10:42:06.743Z,40.06
2023-02-27T10:43:08.315Z,38.74
2023-02-27T10:44:10.531Z,39.13
2023-02-27T10:45:15.815Z,37.78
2023-02-27T10:46:21.042Z,36.85
2023-02-27T10:47:23.869Z,36.31
2023-02-27T10:48:25.456Z,36.44
2023-02-27T10:49:27.348Z,36.68
2023-02-27T10:50:33.771Z,36.76
2023-02-27T10:51:38.324Z,36.91
2023-02-27T10:53:00.183Z,36.78
2023-02-27T10:54:19.406Z,38.23
2023-02-27T10:55:38.937Z,38.34
2023-02-27T10:56:40.477Z,37.93
2023-02-27T10:57:42.474Z,37.71
2023-02-27T10:58:44.000Z,37.57
2023-02-27T10:59:59.761Z,38.79
2023-02-27T11:01:06.263Z,37.77
2023-02-27T11:02:16.347Z,38.64
2023-02-27T11:03:25.998Z,38.58
2023-02-27T11:04:40.598Z,38.06
2023-02-27T11:05:42.277Z,37.07
2023-02-27T11:06:43.802Z,36.90
2023-02-27T11:07:45.322Z,37.05
2023-02-27T11:08:48.472Z,36.48
2023-02-27T11:10:02.939Z,36.39
2023-02-27T11:11:05.333Z,36.87
2023-02-27T11:12:26.207Z,37.39
2023-02-27T11:13:32.829Z,37.41
2023-02-27T11:14:34.507Z,37.01
2023-02-27T11:15:37.490Z,36.78
2023-02-27T11:16:52.029Z,35.85
2023-02-27T11:17:55.076Z,35.65
2023-02-27T11:18:57.365Z,35.56
2023-02-27T11:20:00.252Z,35.95
2023-02-27T11:21:36.732Z,36.63
2023-02-27T11:22:38.282Z,36.23
2023-02-27T11:23:53.733Z,35.52
2023-02-27T11:25:21.029Z,35.15
2023-02-27T11:26:53.403Z,37.05
2023-02-27T11:28:01.449Z,38.12
2023-02-27T11:29:05.888Z,38.93
2023-02-27T11:30:27.216Z,39.31
2023-02-27T11:31:29.149Z,38.95
2023-02-27T11:32:45.018Z,38.46
2023-02-27T11:33:53.882Z,38.92
2023-02-27T11:34:55.430Z,39.61
2023-02-27T11:35:58.313Z,38.92
2023-02-27T11:37:07.405Z,38.81
2023-02-27T11:38:18.287Z,38.64
2023-02-27T11:39:37.646Z,37.88
2023-02-27T11:40:55.273Z,37.95
2023-02-27T11:41:58.161Z,37.70
2023-02-27T11:43:26.831Z,36.98
2023-02-27T11:44:50.186Z,36.60
2023-02-27T11:46:09.437Z,37.13
2023-02-27T11:47:28.620Z,36.91
2023-02-27T11:48:40.789Z,36.86
2023-02-27T11:50:17.948Z,36.99
2023-02-27T11:51:47.008Z,36.91
2023-02-27T11:53:02.883Z,36.83
2023-02-27T11:54:34.667Z,36.95
2023-02-27T11:55:36.493Z,37.03
2023-02-27T11:56:47.786Z,36.43
2023-02-27T11:57:52.427Z,36.67
2023-02-27T11:59:07.065Z,37.29
2023-02-27T12:00:17.016Z,37.18
2023-02-27T12:01:23.228Z,36.80
2023-02-27T12:02:45.076Z,36.17
2023-02-27T12:03:58.097Z,36.43
2023-02-27T12:05:17.503Z,36.11
2023-02-27T12:06:21.324Z,36.16
2023-02-27T12:07:34.438Z,36.30
2023-02-27T12:08:46.284Z,36.06
2023-02-27T12:10:06.415Z,35.92
2023-02-27T12:11:15.787Z,35.83
2023-02-27T12:12:22.739Z,36.33
2023-02-27T12:13:31.771Z,36.12
2023-02-27T12:14:37.880Z,35.81
2023-02-27T12:15:45.985Z,36.63
2023-02-27T12:17:03.656Z,36.30
2023-02-27T12:18:14.121Z,35.74
2023-02-27T12:19:33.473Z,35.14
2023-02-27T12:20:45.652Z,35.47
2023-02-27T12:21:50.212Z,35.48
2023-02-27T12:22:53.442Z,35.16
2023-02-27T12:24:25.099Z,35.22
2023-02-27T12:25:40.666Z,35.02
2023-02-27T12:26:43.437Z,34.29
2023-02-27T12:28:09.046Z,34.75
2023-02-27T12:29:16.733Z,35.13
2023-02-27T12:30:21.238Z,34.91
2023-02-27T12:31:36.595Z,35.17
2023-02-27T12:32:40.644Z,34.86
2023-02-27T12:33:46.707Z,35.32
2023-02-27T12:34:52.917Z,35.11
2023-02-27T12:35:58.345Z,35.05
2023-02-27T12:37:05.737Z,35.54
2023-02-27T12:38:08.233Z,35.27
2023-02-27T12:39:16.687Z,35.12
2023-02-27T12:40:18.955Z,34.98
2023-02-27T12:41:27.905Z,35.26
2023-02-27T12:42:38.796Z,34.49
2023-02-27T12:43:50.809Z,34.02
2023-02-27T12:45:26.801Z,34.33
2023-02-27T12:46:55.054Z,33.75
2023-02-27T12:48:15.024Z,33.46
2023-02-27T12:49:25.632Z,33.58
2023-02-27T12:50:30.586Z,33.66
2023-02-27T12:51:52.617Z,32.95
2023-02-27T12:52:54.059Z,33.23
2023-02-27T12:54:10.573Z,33.84
2023-02-27T12:55:15.517Z,32.89
2023-02-27T12:56:19.358Z,33.06
2023-02-27T12:57:42.774Z,33.18
2023-02-27T12:59:08.558Z,34.58
2023-02-27T13:00:13.240Z,34.77
2023-02-27T13:01:24.176Z,34.51
2023-02-27T13:02:44.083Z,34.54
2023-02-27T13:03:56.626Z,33.93
2023-02-27T13:05:07.907Z,32.88
2023-02-27T13:06:27.650Z,33.85
2023-02-27T13:07:33.779Z,33.81
2023-02-27T13:08:45.393Z,34.22
2023-02-27T13:10:02.051Z,34.79
2023-02-27T13:11:39.060Z,34.35
2023-02-27T13:12:42.189Z,34.45
2023-02-27T13:13:47.955Z,34.62
2023-02-27T13:14:53.713Z,34.35
2023-02-27T13:16:05.856Z,33.90
2023-02-27T13:17:27.700Z,33.80
2023-02-27T13:18:52.421Z,33.94
2023-02-27T13:19:57.855Z,34.10
2023-02-27T13:21:13.650Z,33.73
2023-02-27T13:22:24.087Z,33.88
2023-02-27T13:23:48.488Z,34.73
2023-02-27T13:24:50.934Z,35.46
2023-02-27T13:25:52.673Z,35.63
2023-02-27T13:26:57.423Z,35.48
2023-02-27T13:28:03.040Z,34.99
2023-02-27T13:29:05.170Z,35.03
2023-02-27T13:30:14.209Z,35.62
2023-02-27T13:31:23.905Z,35.52
2023-02-27T13:32:43.696Z,35.20
2023-02-27T13:33:54.469Z,34.39
2023-02-27T13:34:59.299Z,34.97
2023-02-27T13:36:09.581Z,34.67
2023-02-27T13:37:11.652Z,33.94
2023-02-27T13:38:32.634Z,34.07
2023-02-27T13:39:47.050Z,34.52
2023-02-27T13:40:48.576Z,34.60
2023-02-27T13:41:50.124Z,33.90
2023-02-27T13:42:52.047Z,34.07
2023-02-27T13:43:53.902Z,34.01
2023-02-27T13:44:58.517Z,33.58
2023-02-27T13:46:01.777Z,33.78
2023-02-27T13:47:29.426Z,33.27
2023-02-27T13:48:40.686Z,32.23
2023-02-27T13:49:42.505Z,32.78
2023-02-27T13:50:43.879Z,32.97
2023-02-27T13:51:47.115Z,34.22
2023-02-27T13:52:48.787Z,34.03
2023-02-27T13:53:50.335Z,33.83
2023-02-27T13:54:55.114Z,33.48
2023-02-27T13:56:20.682Z,33.97
2023-02-27T13:57:24.300Z,34.52
2023-02-27T13:58:25.911Z,33.66
2023-02-27T13:59:57.038Z,33.79
2023-02-27T14:00:59.437Z,33.11
2023-02-27T14:02:02.511Z,33.20
2023-02-27T14:03:19.319Z,32.12
2023-02-27T14:04:20.960Z,30.80
2023-02-27T14:05:35.200Z,31.70
2023-02-27T14:06:43.112Z,32.81
2023-02-27T14:07:58.975Z,33.03
2023-02-27T14:09:14.155Z,32.57
2023-02-27T14:10:27.657Z,32.63
2023-02-27T14:11:39.810Z,33.09
2023-02-27T14:12:45.428Z,32.85
2023-02-27T14:13:50.343Z,33.15
2023-02-27T14:14:51.967Z,33.06
2023-02-27T14:15:55.633Z,32.11
2023-02-27T14:16:57.803Z,32.34
2023-02-27T14:18:13.871Z,32.18
2023-02-27T14:19:17.805Z,32.49
2023-02-27T14:20:30.105Z,32.52
2023-02-27T14:21:56.987Z,32.10
2023-02-27T14:23:17.099Z,31.62
2023-02-27T14:24:19.958Z,30.59
2023-02-27T14:25:24.877Z,30.90
2023-02-27T14:26:27.875Z,31.10
2023-02-27T14:27:30.229Z,30.65
2023-02-27T14:28:55.676Z,30.38